Airfield :
LOGIN :

Register | Disclaimer

   EN    FR    IT 

 










Legend :    VFR   Marginal VFR   IFR   Intensive IFR   Very Intensive IFR
Visi :
Ceiling :
>= 8 km
>= 3000ft
5 to 8 km
1000 to 3000 ft
1500m to 5 km
500 to 1000 ft
800 to 1500m
200 to 500 ft
< 800m
< 200 ft
Symbols :   Thunderstorms  Fog  Heavy snow  Heavy precipitations  Wind > 20 kt
SIGMETs :     Misc.  Thunderstorms  Icing  Turbulence  Mountain Waves  Volcanic Ashes






- Airport Elevation : 137 ft


LIPS - Istrana AFB Treviso

CURRENT METAR :
  • 010055Z /////KT CAVOK 03/M03 Q1023 RMK SKC VIS MIN 9999 WIND THR26 34005KT WIND THR08 01004KT BLU

EXPIRED METARs :
  • 312355Z /////KT CAVOK 04/M04 Q1024 RMK SKC VIS MIN 9999 WIND THR26 00000KT WIND THR08 00000KT BLU
  • 312255Z /////KT 9999 SCT070 05/M03 Q1024 RMK SCT VIS MIN 9999 WIND THR26 01005KT WIND THR08 04004KT BLU

TAF TAF LIPS
Valid from the 31 at 18:00 until the 01 at 03:00 UTC


311700Z 3118/0103 04005KT 9999 BKN100



MET'MAP, your aeronautical weather chart ! - Copyright ORBIFLY December 2007 - Disclaimer

ORBIFLY MET'MAP TEAM :

Programming & Development : Alexandra Zaïnal
Concept & original design : Baudouin d'Aumeries
Assistance for programming : Marc-Olivier Méhu
Technical & hardware support : Manuel Goepfert

Contact : metmap@orbifly.com




SOURCES & CREDITS :

   NOAA